Time;durP1;ratioP1;P1;durP2;ratioP2;P2;SDS_P1;SDS_P2;PMS_P1;PMS_P2;Temp;Humidity;BMP_temperature;BMP_pressure;BME280_temperature;BME280_humidity;BME280_pressure;Samples;Min_cycle;Max_cycle;Signal;HPM_P1;HPM_P2
2021/06/11 04:30:56;;;;;;;12.87;11.67;;;14.90;99.90;;;;;;5853711;23;20932;-73
2021/06/11 04:33:24;;;;;;;13.30;11.90;;;15.00;99.90;;;;;;4967232;28;20467;-77
2021/06/11 04:35:51;;;;;;;13.70;12.30;;;15.10;99.90;;;;;;4967851;28;20425;-77
2021/06/11 04:38:17;;;;;;;13.97;12.57;;;15.10;99.90;;;;;;4974238;28;20436;-77
2021/06/11 04:40:43;;;;;;;13.97;12.63;;;15.20;99.90;;;;;;4974953;28;20430;-77
2021/06/11 04:43:09;;;;;;;15.87;13.60;;;15.40;99.90;;;;;;4974441;28;20935;-74
2021/06/11 04:45:35;;;;;;;15.20;13.70;;;15.50;99.90;;;;;;4973628;28;20443;-75
2021/06/11 04:48:01;;;;;;;14.33;12.83;;;15.60;99.90;;;;;;4975092;28;20183;-75
2021/06/11 04:50:27;;;;;;;12.57;11.20;;;15.70;99.90;;;;;;4973561;28;20655;-74
2021/06/11 04:52:53;;;;;;;16.50;14.40;;;15.80;99.90;;;;;;4974501;28;20429;-75
2021/06/11 04:55:19;;;;;;;13.50;12.10;;;16.00;99.90;;;;;;4974669;28;20902;-77
2021/06/11 04:57:45;;;;;;;16.97;12.80;;;16.10;99.90;;;;;;4974433;28;20617;-74
2021/06/11 05:00:11;;;;;;;14.33;10.27;;;16.50;99.90;;;;;;4974224;28;20427;-78
2021/06/11 05:02:37;;;;;;;13.00;10.20;;;17.60;99.90;;;;;;4974816;28;20188;-77
2021/06/11 05:05:03;;;;;;;13.23;11.10;;;19.10;99.90;;;;;;4974108;28;20825;-77
2021/06/11 05:07:29;;;;;;;11.17;10.10;;;20.30;99.90;;;;;;4981382;28;20180;-81
2021/06/11 05:09:54;;;;;;;10.50;9.43;;;21.30;99.90;;;;;;4976223;28;20937;-77
2021/06/11 05:12:20;;;;;;;12.07;10.73;;;21.70;99.90;;;;;;4977901;28;20567;-81
2021/06/11 05:14:46;;;;;;;11.77;10.50;;;22.40;99.90;;;;;;4977666;28;20180;-80
2021/06/11 05:17:11;;;;;;;12.63;10.33;;;22.70;99.90;;;;;;4978031;28;20227;-79
2021/06/11 05:19:39;;;;;;;10.23;9.30;;;23.10;99.90;;;;;;4977838;28;20176;-79
2021/06/11 05:22:04;;;;;;;10.30;9.20;;;23.50;99.90;;;;;;4977934;28;20199;-79
2021/06/11 05:24:30;;;;;;;9.77;8.83;;;24.10;99.90;;;;;;4976918;28;20411;-78
2021/06/11 05:26:56;;;;;;;10.50;9.20;;;24.30;99.90;;;;;;4975988;28;20188;-79
2021/06/11 05:29:21;;;;;;;11.80;10.63;;;24.30;99.90;;;;;;4976617;28;20660;-80
2021/06/11 05:31:47;;;;;;;10.60;9.57;;;24.30;99.90;;;;;;4975259;28;20735;-79
2021/06/11 05:34:12;;;;;;;14.60;10.80;;;24.30;99.90;;;;;;4975418;28;20183;-79
2021/06/11 05:36:38;;;;;;;10.43;9.33;;;24.20;99.90;;;;;;4976264;28;20262;-78
2021/06/11 05:39:04;;;;;;;11.43;10.37;;;24.30;99.90;;;;;;4976795;28;20172;-79
2021/06/11 05:41:30;;;;;;;11.63;10.43;;;24.10;99.90;;;;;;4976430;28;20330;-78
2021/06/11 05:43:56;;;;;;;11.70;10.37;;;23.90;99.90;;;;;;4975741;28;20435;-78
2021/06/11 05:46:22;;;;;;;12.13;10.13;;;23.40;99.90;;;;;;4975869;28;20545;-78
2021/06/11 05:48:48;;;;;;;10.70;9.70;;;23.30;99.90;;;;;;4975774;28;20176;-78
2021/06/11 05:51:14;;;;;;;11.20;10.20;;;23.10;99.90;;;;;;4975849;28;20294;-79
2021/06/11 05:53:39;;;;;;;11.63;10.43;;;23.20;99.90;;;;;;4975677;28;20443;-79
2021/06/11 05:56:06;;;;;;;12.83;11.53;;;22.90;99.90;;;;;;4976192;28;20183;-78
2021/06/11 05:58:32;;;;;;;10.13;9.13;;;22.90;99.90;;;;;;4976097;28;20251;-78
2021/06/11 06:00:57;;;;;;;11.23;10.03;;;23.20;99.90;;;;;;4975038;28;21026;-79
2021/06/11 06:03:23;;;;;;;12.00;10.40;;;23.10;99.90;;;;;;4974023;28;20471;-79
2021/06/11 06:05:49;;;;;;;10.73;9.63;;;23.00;99.90;;;;;;4974172;28;20235;-79
2021/06/11 06:08:14;;;;;;;11.53;10.53;;;23.30;99.90;;;;;;4973942;28;20195;-79
2021/06/11 06:10:40;;;;;;;11.20;10.00;;;23.40;99.90;;;;;;4973625;28;20192;-79
2021/06/11 06:13:06;;;;;;;11.40;10.30;;;23.70;99.90;;;;;;4972928;28;20598;-79
2021/06/11 06:15:31;;;;;;;12.70;10.13;;;23.80;99.90;;;;;;4974035;28;20187;-79
2021/06/11 06:17:57;;;;;;;12.07;10.87;;;23.90;99.90;;;;;;4973891;28;20236;-79
2021/06/11 06:20:23;;;;;;;12.20;10.00;;;24.00;99.90;;;;;;4973636;28;20172;-79
2021/06/11 06:22:48;;;;;;;11.47;10.30;;;24.10;99.90;;;;;;4973669;28;20186;-79
2021/06/11 06:25:14;;;;;;;11.60;10.40;;;24.20;99.90;;;;;;4973752;28;20176;-79
2021/06/11 06:27:41;;;;;;;12.50;11.27;;;24.20;99.90;;;;;;4979618;28;20180;-78
2021/06/11 06:30:09;;;;;;;9.77;8.97;;;24.40;99.90;;;;;;4980011;28;20176;-77
2021/06/11 06:32:35;;;;;;;10.57;9.47;;;24.70;99.90;;;;;;4975403;28;20450;-77
2021/06/11 06:35:01;;;;;;;13.17;10.37;;;24.70;99.90;;;;;;4975131;28;20443;-79
2021/06/11 06:37:28;;;;;;;11.87;9.93;;;24.80;99.90;;;;;;4975220;28;20542;-78
2021/06/11 06:39:54;;;;;;;11.63;10.00;;;24.60;99.90;;;;;;4976769;28;20419;-78
2021/06/11 06:42:20;;;;;;;11.07;9.90;;;24.70;99.90;;;;;;4976187;28;20435;-78
2021/06/11 06:44:46;;;;;;;12.40;11.10;;;25.00;99.90;;;;;;4976731;28;20550;-79
2021/06/11 06:47:12;;;;;;;10.07;9.17;;;25.00;99.90;;;;;;4988439;23;20493;-80
2021/06/11 06:49:38;;;;;;;13.23;9.80;;;25.10;99.90;;;;;;4985942;28;20429;-80
2021/06/11 06:52:04;;;;;;;13.73;10.90;;;25.30;99.90;;;;;;4994799;28;20572;-79
2021/06/11 06:54:30;;;;;;;10.90;9.47;;;25.30;99.90;;;;;;4996452;28;20414;-81
2021/06/11 06:56:56;;;;;;;11.60;10.07;;;25.20;99.90;;;;;;4993567;28;20476;-80
2021/06/11 06:59:21;;;;;;;12.00;10.93;;;25.40;99.90;;;;;;4995688;28;20198;-78
2021/06/11 07:01:50;;;;;;;10.93;9.90;;;25.50;99.90;;;;;;4994859;28;20615;-81
2021/06/11 07:04:18;;;;;;;10.63;9.40;;;25.80;99.90;;;;;;4994953;28;20195;-80
2021/06/11 07:06:49;;;;;;;10.60;9.70;;;26.30;99.90;;;;;;4994348;28;20758;-80
2021/06/11 07:09:14;;;;;;;10.30;9.50;;;26.30;99.90;;;;;;4997259;28;20422;-80
2021/06/11 07:11:40;;;;;;;9.93;8.93;;;26.70;99.90;;;;;;4994325;28;20775;-81
2021/06/11 07:14:05;;;;;;;11.50;10.30;;;27.20;99.90;;;;;;4992894;28;20213;-81
2021/06/11 07:16:31;;;;;;;11.83;10.70;;;27.20;99.90;;;;;;4994510;28;20191;-80
2021/06/11 07:18:56;;;;;;;10.63;9.73;;;27.00;99.90;;;;;;4993830;28;20183;-80
2021/06/11 07:21:22;;;;;;;10.43;9.43;;;27.00;99.90;;;;;;4993714;28;20583;-78
2021/06/11 07:23:47;;;;;;;10.60;9.60;;;27.40;99.90;;;;;;4991617;28;20175;-80
2021/06/11 07:26:13;;;;;;;10.87;9.87;;;27.70;99.90;;;;;;4994592;28;20190;-81
2021/06/11 07:28:39;;;;;;;14.00;9.60;;;27.80;99.90;;;;;;4992732;28;20183;-80
2021/06/11 07:31:06;;;;;;;12.57;10.53;;;27.90;99.90;;;;;;4994569;28;20564;-80
2021/06/11 07:33:31;;;;;;;11.63;10.43;;;27.80;99.90;;;;;;4991525;28;20473;-78
2021/06/11 07:35:58;;;;;;;10.80;8.80;;;27.60;99.90;;;;;;4975602;28;20415;-78
2021/06/11 07:38:25;;;;;;;12.73;10.30;;;27.70;99.90;;;;;;4962972;28;20556;-78
2021/06/11 07:40:53;;;;;;;10.23;8.97;;;27.70;99.90;;;;;;4962690;28;20531;-78
2021/06/11 07:43:19;;;;;;;10.80;9.57;;;27.80;99.90;;;;;;4968354;28;20407;-78
2021/06/11 07:45:45;;;;;;;11.07;9.90;;;27.70;99.90;;;;;;4973085;28;20482;-78
2021/06/11 07:48:10;;;;;;;10.53;9.53;;;27.80;99.90;;;;;;4971140;28;20432;-78
2021/06/11 07:50:36;;;;;;;12.13;10.93;;;27.70;99.90;;;;;;4973185;28;20176;-78
2021/06/11 07:53:01;;;;;;;10.40;8.97;;;27.60;99.90;;;;;;4974371;28;20168;-76
2021/06/11 07:55:27;;;;;;;11.10;10.00;;;27.80;99.90;;;;;;4975989;28;20168;-78
2021/06/11 07:57:53;;;;;;;10.73;9.13;;;27.90;99.90;;;;;;4976006;28;20849;-78
2021/06/11 08:00:19;;;;;;;14.60;10.23;;;28.20;99.90;;;;;;4966965;28;20510;-78
2021/06/11 08:02:44;;;;;;;13.50;9.57;;;28.10;99.90;;;;;;4963816;28;20196;-78
2021/06/11 08:05:10;;;;;;;14.13;9.87;;;28.00;99.90;;;;;;4963253;28;20455;-78
2021/06/11 08:07:36;;;;;;;11.40;10.43;;;28.20;99.90;;;;;;4963246;28;20207;-78
2021/06/11 08:10:04;;;;;;;9.97;9.03;;;28.20;99.90;;;;;;4965217;28;20418;-77
2021/06/11 08:12:30;;;;;;;12.17;9.40;;;28.50;99.90;;;;;;4963916;28;20432;-78
2021/06/11 08:14:56;;;;;;;13.80;9.80;;;28.90;99.90;;;;;;4963266;28;20905;-78
2021/06/11 08:17:21;;;;;;;12.00;9.43;;;29.10;99.90;;;;;;4964602;28;20200;-78
2021/06/11 08:19:47;;;;;;;12.67;10.13;;;29.50;99.90;;;;;;4963665;28;20171;-78
2021/06/11 08:22:12;;;;;;;15.00;9.83;;;29.80;99.90;;;;;;4963348;28;20202;-78
2021/06/11 08:24:38;;;;;;;11.80;9.60;;;30.30;99.90;;;;;;4962127;28;20240;-77
2021/06/11 08:27:04;;;;;;;9.80;8.90;;;30.60;99.90;;;;;;4962645;28;20228;-77
2021/06/11 08:29:29;;;;;;;9.80;8.90;;;30.60;99.90;;;;;;4961903;28;20176;-78
2021/06/11 08:31:55;;;;;;;9.40;8.50;;;30.80;99.90;;;;;;4963981;28;20687;-78
2021/06/11 08:34:21;;;;;;;10.90;9.10;;;30.90;99.90;;;;;;4961184;28;20173;-79
2021/06/11 08:36:47;;;;;;;9.70;8.90;;;31.10;99.90;;;;;;4963049;28;20204;-77
2021/06/11 08:39:12;;;;;;;9.27;8.33;;;31.30;99.90;;;;;;4963322;28;20617;-77
2021/06/11 08:41:38;;;;;;;9.00;8.20;;;31.50;99.90;;;;;;4961865;28;20559;-78
2021/06/11 08:44:06;;;;;;;10.57;9.47;;;31.50;99.90;;;;;;4960804;28;20181;-77
2021/06/11 08:46:32;;;;;;;10.80;9.70;;;31.10;99.90;;;;;;4961926;28;20509;-77
2021/06/11 08:49:01;;;;;;;9.63;8.90;;;31.00;99.90;;;;;;4964274;28;20534;-78
2021/06/11 08:51:28;;;;;;;9.03;8.30;;;31.10;99.90;;;;;;4962066;28;20444;-77
2021/06/11 08:53:54;;;;;;;11.27;10.10;;;31.30;99.90;;;;;;4961366;28;20520;-77
2021/06/11 08:56:20;;;;;;;9.73;8.70;;;31.30;99.90;;;;;;4960973;28;20844;-77
2021/06/11 08:58:45;;;;;;;10.43;9.63;;;31.40;99.90;;;;;;4958532;28;20638;-79
2021/06/11 09:01:11;;;;;;;11.23;10.07;;;31.90;99.90;;;;;;4954098;28;20572;-79
2021/06/11 09:03:48;;;;;;;10.70;8.80;;;32.10;99.90;;;;;;4954180;28;20260;-78
2021/06/11 09:06:14;;;;;;;10.20;8.80;;;32.00;99.90;;;;;;4968336;28;20724;-79
2021/06/11 09:08:57;;;;;;;10.53;9.67;;;32.20;99.90;;;;;;4973352;28;20420;-78
2021/06/11 09:11:25;;;;;;;9.77;8.73;;;32.00;99.90;;;;;;4957509;28;20436;-78
2021/06/11 09:14:04;;;;;;;9.50;8.20;;;31.90;99.90;;;;;;4952698;28;20766;-77
2021/06/11 09:16:40;;;;;;;12.93;9.67;;;31.70;99.90;;;;;;4953856;28;20463;-79
2021/06/11 09:19:24;;;;;;;11.00;10.07;;;31.80;99.90;;;;;;4941998;28;20527;-78
2021/06/11 09:21:51;;;;;;;8.73;7.93;;;31.50;99.90;;;;;;4951938;28;20482;-78
2021/06/11 09:27:01;;;;;;;9.70;8.80;;;31.90;99.90;;;;;;4973263;28;20439;-77
2021/06/11 09:29:29;;;;;;;9.50;8.80;;;32.30;99.90;;;;;;4973300;28;20801;-77
2021/06/11 09:32:20;;;;;;;10.20;9.30;;;31.80;99.90;;;;;;4972392;28;20439;-78
2021/06/11 09:34:48;;;;;;;10.87;9.50;;;32.00;99.90;;;;;;4971348;28;20929;-79
2021/06/11 09:37:30;;;;;;;11.27;10.17;;;32.10;99.90;;;;;;4971925;28;20996;-77
2021/06/11 09:40:06;;;;;;;8.97;8.27;;;32.10;99.90;;;;;;4972379;28;20528;-78
2021/06/11 09:42:34;;;;;;;9.97;9.27;;;32.60;99.90;;;;;;4971052;28;20443;-76
2021/06/11 09:45:09;;;;;;;10.10;9.17;;;33.00;99.90;;;;;;4971956;28;20515;-77
2021/06/11 09:47:40;;;;;;;11.27;10.27;;;33.30;99.90;;;;;;4971475;28;20446;-78
2021/06/11 09:50:11;;;;;;;10.43;9.43;;;33.20;99.90;;;;;;4973638;28;20493;-78
2021/06/11 09:52:51;;;;;;;10.10;9.30;;;33.00;99.90;;;;;;4961018;28;21143;-77
2021/06/11 09:55:36;;;;;;;10.63;9.47;;;32.90;99.90;;;;;;4953850;28;20431;-77
2021/06/11 09:58:10;;;;;;;9.27;8.50;;;32.70;99.90;;;;;;4953612;28;20458;-75
2021/06/11 10:00:42;;;;;;;11.17;10.27;;;33.10;99.90;;;;;;4957575;28;20468;-77
2021/06/11 10:03:13;;;;;;;9.00;8.23;;;33.30;99.90;;;;;;4974042;28;20420;-77
2021/06/11 10:05:41;;;;;;;11.27;10.17;;;33.70;99.90;;;;;;4995985;28;20418;-78
2021/06/11 10:08:08;;;;;;;10.20;9.30;;;33.90;99.90;;;;;;4980776;28;20458;-78
2021/06/11 10:10:34;;;;;;;14.83;12.30;;;34.20;99.90;;;;;;4977731;28;20522;-77
2021/06/11 10:13:00;;;;;;;10.50;9.60;;;33.70;99.90;;;;;;4973616;28;20506;-77
2021/06/11 10:15:25;;;;;;;10.40;9.50;;;34.00;99.90;;;;;;4976919;28;20523;-75
2021/06/11 10:17:51;;;;;;;10.77;9.97;;;34.10;99.90;;;;;;4979988;28;20215;-76
2021/06/11 10:20:17;;;;;;;9.77;8.97;;;33.90;99.90;;;;;;4979861;28;20274;-75
2021/06/11 10:22:43;;;;;;;10.77;9.73;;;33.30;99.90;;;;;;4974158;28;20223;-75
2021/06/11 10:25:12;;;;;;;11.23;10.43;;;32.40;99.90;;;;;;4973532;28;20243;-74
2021/06/11 10:27:40;;;;;;;11.00;9.90;;;32.30;99.90;;;;;;4979375;28;20432;-76
2021/06/11 10:30:07;;;;;;;12.40;11.20;;;32.10;99.90;;;;;;4980232;28;20773;-76
2021/06/11 10:32:38;;;;;;;14.17;11.27;;;31.60;99.90;;;;;;4986043;28;20537;-77
2021/06/11 10:35:04;;;;;;;10.97;10.07;;;31.10;99.90;;;;;;4993681;28;20446;-78
2021/06/11 10:37:43;;;;;;;13.07;11.97;;;30.40;99.90;;;;;;4995722;28;20503;-77
2021/06/11 10:40:20;;;;;;;12.33;11.23;;;29.70;99.90;;;;;;4995817;28;20632;-78
2021/06/11 10:42:45;;;;;;;11.70;10.50;;;29.10;99.90;;;;;;4992797;28;20450;-78
2021/06/11 10:45:15;;;;;;;11.03;10.23;;;28.70;99.90;;;;;;4994775;28;20922;-77
2021/06/11 10:47:55;;;;;;;13.30;12.00;;;28.80;99.90;;;;;;4994463;28;20210;-77
2021/06/11 10:50:35;;;;;;;11.30;10.20;;;29.00;99.90;;;;;;4966803;28;20487;-77
2021/06/11 10:53:27;;;;;;;11.80;10.70;;;30.00;99.90;;;;;;4962775;28;20423;-77
2021/06/11 10:56:12;;;;;;;12.50;11.40;;;30.90;99.90;;;;;;4955282;28;20455;-77
2021/06/11 10:58:39;;;;;;;11.53;10.43;;;31.20;99.90;;;;;;4962557;28;20428;-77
2021/06/11 11:01:25;;;;;;;10.90;9.77;;;31.50;99.90;;;;;;4962202;28;20451;-76
2021/06/11 11:03:52;;;;;;;10.77;9.97;;;31.60;99.90;;;;;;4973481;28;20756;-77
2021/06/11 11:06:35;;;;;;;11.00;10.20;;;31.80;99.90;;;;;;4969913;28;20502;-77
2021/06/11 11:09:04;;;;;;;13.10;9.87;;;31.30;99.90;;;;;;4963177;28;20404;-77
2021/06/11 11:11:40;;;;;;;10.00;9.00;;;30.80;99.90;;;;;;4954606;28;20937;-78
2021/06/11 11:14:07;;;;;;;11.60;10.60;;;30.70;99.90;;;;;;4954162;29;20423;-77
2021/06/11 11:16:35;;;;;;;11.90;10.80;;;31.10;99.90;;;;;;4954360;29;20980;-77
2021/06/11 11:19:03;;;;;;;10.80;9.80;;;31.00;99.90;;;;;;4955679;28;20425;-76
2021/06/11 11:21:39;;;;;;;10.87;9.50;;;31.20;99.90;;;;;;4954187;28;20451;-75
2021/06/11 11:24:09;;;;;;;12.00;11.00;;;31.10;99.90;;;;;;4953598;28;20423;-76
2021/06/11 11:26:49;;;;;;;10.37;9.57;;;31.00;99.90;;;;;;4953268;29;20425;-76
2021/06/11 11:29:17;;;;;;;11.87;10.70;;;31.00;99.90;;;;;;4954078;28;20424;-76
2021/06/11 11:31:46;;;;;;;11.30;10.30;;;31.00;99.90;;;;;;4954224;28;20440;-75
2021/06/11 11:34:12;;;;;;;10.70;9.50;;;30.40;99.90;;;;;;4952156;29;20429;-76
2021/06/11 11:36:38;;;;;;;11.77;10.67;;;30.30;99.90;;;;;;4954171;29;20464;-76
2021/06/11 11:39:06;;;;;;;11.30;10.20;;;30.90;99.90;;;;;;4954256;28;20593;-75
2021/06/11 11:41:33;;;;;;;10.43;9.53;;;30.50;99.90;;;;;;4954098;29;20487;-75
2021/06/11 11:43:59;;;;;;;11.37;10.27;;;30.10;99.90;;;;;;4953121;28;20417;-76
2021/06/11 11:46:24;;;;;;;10.40;9.40;;;29.70;99.90;;;;;;4954043;29;20451;-75
2021/06/11 11:48:50;;;;;;;11.67;10.77;;;29.80;99.90;;;;;;4955063;28;20232;-76
2021/06/11 11:51:17;;;;;;;12.10;11.10;;;29.80;99.90;;;;;;4981949;28;20223;-75
2021/06/11 11:53:42;;;;;;;11.93;10.93;;;29.50;99.90;;;;;;4970275;28;20873;-73
2021/06/11 11:56:08;;;;;;;10.80;9.87;;;29.00;99.90;;;;;;4961978;28;20428;-75
2021/06/11 11:58:34;;;;;;;11.30;10.30;;;28.80;99.90;;;;;;4960736;28;20280;-76
2021/06/11 12:00:59;;;;;;;9.67;8.80;;;28.70;99.90;;;;;;4953499;29;20204;-76
2021/06/11 12:03:25;;;;;;;9.57;8.67;;;28.80;99.90;;;;;;4964540;28;20428;-75
2021/06/11 12:05:50;;;;;;;8.80;8.10;;;29.20;99.90;;;;;;4984166;28;20651;-76
2021/06/11 12:08:16;;;;;;;8.57;7.97;;;29.50;99.90;;;;;;4991907;28;20533;-75
2021/06/11 12:10:42;;;;;;;8.93;8.03;;;29.70;99.90;;;;;;4991985;28;20191;-75
2021/06/11 12:13:07;;;;;;;9.33;8.63;;;29.90;99.90;;;;;;4991471;28;20182;-75
2021/06/11 12:15:33;;;;;;;9.60;8.80;;;29.80;99.60;;;;;;4991923;28;20262;-75
2021/06/11 12:17:58;;;;;;;8.27;7.47;;;29.50;99.60;;;;;;4973283;28;20215;-76
2021/06/11 12:20:30;;;;;;;6.70;6.20;;;29.40;98.80;;;;;;4986999;28;20190;-75
2021/06/11 12:22:56;;;;;;;6.90;6.47;;;29.20;98.90;;;;;;4991363;28;20171;-75
2021/06/11 12:25:22;;;;;;;7.10;6.70;;;29.40;99.90;;;;;;4991968;28;20422;-73
2021/06/11 12:27:48;;;;;;;7.17;6.43;;;29.30;99.90;;;;;;4991857;28;20425;-76
2021/06/11 12:30:14;;;;;;;7.27;6.70;;;29.20;99.90;;;;;;4991754;28;20182;-76
2021/06/11 12:32:39;;;;;;;10.93;6.30;;;29.30;99.90;;;;;;4991231;28;20207;-76
2021/06/11 12:35:05;;;;;;;7.27;6.57;;;29.30;99.90;;;;;;4991503;28;20418;-75
2021/06/11 12:37:31;;;;;;;7.03;6.33;;;29.50;99.70;;;;;;4992016;28;20203;-75
2021/06/11 12:39:56;;;;;;;7.07;6.47;;;29.30;99.90;;;;;;4991806;28;20422;-76
2021/06/11 12:42:32;;;;;;;6.60;6.00;;;28.90;99.30;;;;;;4991540;28;20195;-75
2021/06/11 12:44:58;;;;;;;6.77;5.90;;;28.90;99.90;;;;;;4990757;28;20175;-76
2021/06/11 12:47:23;;;;;;;7.30;6.67;;;29.00;99.50;;;;;;4988502;28;20981;-76
2021/06/11 12:49:49;;;;;;;6.00;5.40;;;29.20;98.20;;;;;;4955279;28;20263;-75
2021/06/11 12:52:14;;;;;;;6.63;6.03;;;29.20;99.90;;;;;;4967491;28;20430;-75
2021/06/11 12:54:40;;;;;;;9.80;6.63;;;29.30;98.50;;;;;;4965942;28;20171;-75
2021/06/11 12:57:06;;;;;;;6.50;5.90;;;29.30;99.30;;;;;;4965728;28;20246;-75
2021/06/11 12:59:34;;;;;;;6.67;6.10;;;29.00;98.80;;;;;;4969538;28;20216;-76
2021/06/11 13:02:00;;;;;;;6.47;6.03;;;29.00;99.30;;;;;;4966837;28;20443;-76
2021/06/11 13:04:25;;;;;;;9.50;6.10;;;29.00;99.30;;;;;;4979432;28;20472;-76
2021/06/11 13:06:51;;;;;;;9.33;6.07;;;29.10;98.90;;;;;;4971894;28;20188;-76
2021/06/11 13:09:16;;;;;;;6.97;6.47;;;29.10;97.70;;;;;;4972033;28;20195;-76
2021/06/11 13:11:42;;;;;;;8.37;7.60;;;29.00;98.30;;;;;;4962233;28;20577;-73
2021/06/11 13:14:08;;;;;;;6.73;6.13;;;29.00;98.10;;;;;;4973683;28;20212;-76
2021/06/11 13:16:34;;;;;;;7.43;6.83;;;29.20;99.50;;;;;;4976561;28;20210;-75
2021/06/11 13:18:59;;;;;;;7.43;6.83;;;29.10;98.90;;;;;;4985858;28;20422;-76
2021/06/11 13:21:29;;;;;;;8.37;7.63;;;29.00;99.20;;;;;;4985604;28;20195;-75
2021/06/11 13:23:55;;;;;;;7.83;7.27;;;29.20;99.90;;;;;;4969314;28;20549;-76
2021/06/11 13:26:20;;;;;;;6.20;5.70;;;29.00;99.50;;;;;;4971246;28;20414;-76
2021/06/11 13:28:46;;;;;;;6.30;5.90;;;28.80;97.80;;;;;;4971580;28;20172;-75
2021/06/11 13:31:11;;;;;;;5.60;5.10;;;28.60;99.80;;;;;;4971518;28;20204;-75
2021/06/11 13:33:37;;;;;;;7.03;6.57;;;28.70;99.50;;;;;;4967966;28;20675;-76
2021/06/11 13:36:03;;;;;;;5.60;5.10;;;28.70;99.50;;;;;;4975685;28;20192;-75
2021/06/11 13:38:30;;;;;;;6.27;5.77;;;28.70;99.20;;;;;;4971380;28;20210;-75
2021/06/11 13:40:56;;;;;;;6.80;6.30;;;28.60;99.10;;;;;;4970166;28;20443;-76
2021/06/11 13:43:22;;;;;;;5.57;5.20;;;28.70;97.80;;;;;;4970792;28;20434;-74
2021/06/11 13:45:47;;;;;;;4.80;4.60;;;28.80;97.90;;;;;;4970908;28;20180;-76
2021/06/11 13:48:13;;;;;;;6.00;5.50;;;28.70;97.20;;;;;;4965588;28;20204;-76
2021/06/11 13:50:38;;;;;;;5.00;4.60;;;28.70;97.30;;;;;;4982285;28;20787;-76
2021/06/11 13:53:03;;;;;;;5.07;4.77;;;28.60;98.20;;;;;;4990085;28;20167;-75
2021/06/11 13:55:29;;;;;;;5.40;4.80;;;28.70;95.60;;;;;;4987858;28;20176;-75
2021/06/11 13:57:56;;;;;;;5.17;4.67;;;28.50;95.80;;;;;;4953002;28;20568;-76
2021/06/11 14:00:27;;;;;;;4.10;3.80;;;28.60;96.10;;;;;;4951917;28;20177;-75
2021/06/11 14:02:54;;;;;;;4.73;4.33;;;28.50;95.90;;;;;;4951491;29;20436;-76
2021/06/11 14:05:20;;;;;;;4.23;3.93;;;28.50;96.50;;;;;;4951515;28;20483;-76
2021/06/11 14:07:50;;;;;;;5.03;4.63;;;28.40;93.80;;;;;;4952060;28;20487;-76
2021/06/11 14:10:17;;;;;;;7.00;6.10;;;28.30;96.70;;;;;;4951659;28;20556;-75
2021/06/11 14:12:43;;;;;;;7.17;6.70;;;28.50;99.40;;;;;;4951114;29;20468;-74
2021/06/11 14:15:09;;;;;;;8.10;7.47;;;28.50;99.90;;;;;;4951535;29;20451;-75
2021/06/11 14:17:35;;;;;;;8.57;7.60;;;28.60;99.90;;;;;;4951738;29;20570;-76
2021/06/11 14:20:01;;;;;;;7.60;6.90;;;28.50;99.90;;;;;;4951462;28;20431;-75
2021/06/11 14:22:26;;;;;;;7.63;7.13;;;28.60;99.90;;;;;;4951471;29;20209;-75
2021/06/11 14:24:52;;;;;;;7.40;6.90;;;28.40;99.90;;;;;;4951134;28;20639;-75
2021/06/11 14:27:18;;;;;;;6.63;6.13;;;28.30;99.90;;;;;;4952132;28;20559;-76
2021/06/11 14:29:45;;;;;;;7.40;6.80;;;28.30;99.90;;;;;;4951274;28;20185;-74
2021/06/11 14:32:11;;;;;;;6.50;6.00;;;28.30;99.90;;;;;;4951672;29;20444;-76
2021/06/11 14:34:37;;;;;;;10.20;6.80;;;28.30;99.90;;;;;;4950976;28;20435;-76
2021/06/11 14:37:02;;;;;;;5.73;5.23;;;28.30;99.90;;;;;;4951733;28;20295;-74
2021/06/11 14:39:28;;;;;;;9.97;6.37;;;28.40;99.90;;;;;;4951353;29;20212;-75
2021/06/11 14:41:54;;;;;;;6.70;6.20;;;28.30;99.90;;;;;;4951482;29;20232;-75
2021/06/11 14:44:19;;;;;;;7.40;6.60;;;28.30;99.90;;;;;;4950868;28;20180;-76
2021/06/11 14:46:45;;;;;;;7.30;6.57;;;28.40;99.90;;;;;;4953025;28;20197;-75
2021/06/11 14:49:11;;;;;;;7.87;7.17;;;28.50;99.90;;;;;;4954956;29;20223;-76
2021/06/11 14:51:38;;;;;;;10.27;7.80;;;28.40;99.90;;;;;;4955175;29;20200;-76
2021/06/11 14:54:04;;;;;;;6.50;6.00;;;28.30;99.70;;;;;;4954442;28;20207;-76
2021/06/11 14:56:41;;;;;;;7.77;7.07;;;28.30;99.90;;;;;;4954995;29;20459;-76
2021/06/11 14:59:09;;;;;;;7.57;7.00;;;28.30;99.90;;;;;;4953731;28;21004;-75
2021/06/11 15:01:36;;;;;;;7.53;6.67;;;28.20;99.90;;;;;;4954897;28;20972;-74
2021/06/11 15:04:02;;;;;;;6.83;6.40;;;28.10;99.90;;;;;;4954233;28;20471;-75
2021/06/11 15:06:27;;;;;;;7.67;7.07;;;28.10;99.90;;;;;;4955001;28;20416;-74
2021/06/11 15:08:53;;;;;;;7.63;7.00;;;28.00;99.90;;;;;;4955106;28;20922;-75
2021/06/11 15:11:19;;;;;;;8.67;8.07;;;28.10;99.90;;;;;;4954449;29;20211;-75
2021/06/11 15:13:45;;;;;;;7.60;6.90;;;28.10;99.90;;;;;;4954013;28;20560;-74
2021/06/11 15:16:10;;;;;;;10.33;7.17;;;27.90;99.90;;;;;;4954948;28;20552;-76
2021/06/11 15:18:37;;;;;;;7.40;6.90;;;27.80;99.90;;;;;;4955031;28;20189;-75
2021/06/11 15:21:03;;;;;;;7.17;6.53;;;27.70;99.90;;;;;;4954384;28;20192;-74
2021/06/11 15:23:30;;;;;;;7.03;6.17;;;27.70;99.90;;;;;;4953271;28;20408;-74
2021/06/11 15:25:57;;;;;;;7.07;6.37;;;27.60;99.90;;;;;;4954750;29;20495;-75
2021/06/11 15:28:23;;;;;;;6.63;6.07;;;27.50;99.90;;;;;;4953219;28;20428;-72
2021/06/11 15:30:52;;;;;;;8.80;6.30;;;27.40;99.90;;;;;;4954520;28;20907;-75
2021/06/11 15:33:18;;;;;;;6.37;5.90;;;27.50;99.90;;;;;;4954383;29;20433;-76
2021/06/11 15:35:44;;;;;;;6.77;6.17;;;27.60;99.90;;;;;;4954026;29;20500;-75
2021/06/11 15:38:10;;;;;;;8.00;5.60;;;27.60;99.90;;;;;;4955263;28;20562;-76
2021/06/11 15:40:37;;;;;;;5.97;5.57;;;27.70;99.90;;;;;;4954357;28;20191;-75
2021/06/11 15:43:08;;;;;;;5.57;5.27;;;27.70;99.90;;;;;;4953468;28;20179;-71
2021/06/11 15:45:34;;;;;;;5.40;5.00;;;27.80;99.90;;;;;;4954792;28;20917;-75
2021/06/11 15:47:59;;;;;;;7.20;4.90;;;27.60;99.90;;;;;;4954482;29;20436;-76
2021/06/11 15:50:26;;;;;;;4.90;4.50;;;27.60;99.90;;;;;;4954384;28;20435;-75
2021/06/11 15:52:51;;;;;;;5.20;4.33;;;27.60;99.90;;;;;;4953386;28;20670;-76
2021/06/11 15:55:18;;;;;;;5.60;5.20;;;27.60;99.90;;;;;;4954198;29;20416;-75
2021/06/11 15:57:43;;;;;;;5.03;4.70;;;27.60;99.90;;;;;;4953670;28;20211;-74
2021/06/11 16:00:10;;;;;;;4.33;4.10;;;27.60;99.90;;;;;;4953734;28;20427;-76
2021/06/11 16:02:35;;;;;;;3.67;3.47;;;27.50;99.40;;;;;;4953308;28;20201;-72
2021/06/11 16:05:01;;;;;;;3.50;3.30;;;27.50;99.30;;;;;;4953425;29;20436;-75
2021/06/11 16:07:27;;;;;;;3.67;3.47;;;27.40;99.90;;;;;;4953651;28;20189;-73
2021/06/11 16:09:52;;;;;;;6.00;4.07;;;27.40;99.90;;;;;;4961317;28;20453;-74
2021/06/11 16:12:18;;;;;;;9.00;3.90;;;27.40;99.80;;;;;;4958085;28;20212;-74
2021/06/11 16:14:44;;;;;;;4.40;4.10;;;27.30;99.60;;;;;;4952720;28;20307;-73
2021/06/11 16:17:10;;;;;;;3.90;3.50;;;27.20;99.70;;;;;;4953550;28;20207;-74
2021/06/11 16:19:35;;;;;;;3.83;3.60;;;27.10;99.90;;;;;;4953586;28;20207;-74
2021/06/11 16:22:01;;;;;;;3.70;3.50;;;27.10;99.50;;;;;;4952895;29;20200;-74
2021/06/11 16:24:27;;;;;;;5.10;4.80;;;27.00;99.40;;;;;;4952373;28;20205;-74
2021/06/11 16:26:52;;;;;;;5.20;4.90;;;27.00;99.60;;;;;;4953585;29;20351;-74
2021/06/11 16:29:18;;;;;;;3.20;3.00;;;27.00;99.90;;;;;;4953355;29;20180;-72
2021/06/11 16:31:44;;;;;;;3.40;3.20;;;26.90;98.90;;;;;;4953085;28;20284;-73
2021/06/11 16:34:09;;;;;;;3.73;3.53;;;26.90;99.30;;;;;;4952400;28;20643;-74
2021/06/11 16:36:35;;;;;;;4.07;3.73;;;26.90;99.50;;;;;;4952600;29;20215;-73
2021/06/11 16:39:03;;;;;;;4.90;4.50;;;26.80;99.80;;;;;;4951864;28;20172;-73
2021/06/11 16:41:29;;;;;;;3.20;3.00;;;26.70;99.00;;;;;;4952971;28;20963;-73
2021/06/11 16:43:55;;;;;;;3.33;3.13;;;26.70;97.10;;;;;;4951099;28;20412;-74
2021/06/11 16:46:20;;;;;;;3.00;2.80;;;26.70;98.30;;;;;;4952817;28;20200;-73
2021/06/11 16:48:47;;;;;;;2.50;2.30;;;26.70;98.20;;;;;;4952743;28;20193;-73
2021/06/11 16:51:14;;;;;;;3.30;2.50;;;26.70;95.60;;;;;;4952957;28;20207;-73
2021/06/11 16:53:40;;;;;;;2.87;2.63;;;26.60;95.40;;;;;;4951502;28;20440;-71
2021/06/11 16:56:05;;;;;;;5.30;2.00;;;26.60;95.30;;;;;;4952729;29;20452;-72
2021/06/11 16:58:31;;;;;;;2.90;2.80;;;26.60;96.90;;;;;;4952787;29;20716;-74
2021/06/11 17:00:57;;;;;;;2.63;2.43;;;26.50;97.60;;;;;;4952655;29;20200;-73
2021/06/11 17:03:22;;;;;;;2.57;2.47;;;26.50;97.40;;;;;;4951485;28;20182;-72
2021/06/11 17:05:48;;;;;;;2.60;2.33;;;26.50;97.30;;;;;;4952515;28;20247;-74
2021/06/11 17:08:14;;;;;;;6.53;5.20;;;26.50;98.00;;;;;;4952184;28;20770;-73
2021/06/11 17:10:39;;;;;;;7.90;3.80;;;26.50;97.90;;;;;;4951401;28;20496;-73